createdAt,value
2023-05-21T00:00:53.621Z,15.72
2023-05-21T00:01:55.254Z,15.71
2023-05-21T00:02:56.954Z,15.70
2023-05-21T00:03:58.687Z,15.65
2023-05-21T00:05:00.470Z,15.69
2023-05-21T00:06:02.260Z,15.71
2023-05-21T00:07:04.053Z,15.74
2023-05-21T00:08:05.707Z,15.75
2023-05-21T00:09:07.329Z,15.73
2023-05-21T00:10:09.392Z,15.69
2023-05-21T00:11:11.015Z,15.62
2023-05-21T00:12:12.720Z,15.66
2023-05-21T00:13:14.339Z,15.65
2023-05-21T00:14:15.964Z,15.49
2023-05-21T00:15:17.585Z,15.52
2023-05-21T00:16:19.238Z,15.57
2023-05-21T00:17:20.915Z,15.63
2023-05-21T00:18:22.686Z,15.66
2023-05-21T00:19:24.618Z,15.70
2023-05-21T00:20:26.315Z,15.73
2023-05-21T00:21:27.914Z,15.74
2023-05-21T00:22:29.484Z,15.77
2023-05-21T00:23:31.118Z,15.80
2023-05-21T00:24:32.685Z,15.82
2023-05-21T00:25:34.468Z,15.85
2023-05-21T00:26:36.235Z,15.87
2023-05-21T00:27:38.169Z,15.88
2023-05-21T00:28:40.512Z,15.86
2023-05-21T00:29:44.134Z,15.85
2023-05-21T00:30:46.029Z,15.84
2023-05-21T00:31:47.883Z,15.86
2023-05-21T00:32:49.679Z,15.84
2023-05-21T00:33:51.301Z,15.86
2023-05-21T00:34:53.103Z,15.83
2023-05-21T00:35:55.809Z,15.80
2023-05-21T00:36:57.611Z,15.79
2023-05-21T00:37:59.228Z,15.79
2023-05-21T00:39:00.816Z,15.78
2023-05-21T00:40:02.684Z,15.72
2023-05-21T00:41:04.366Z,15.72
2023-05-21T00:42:05.950Z,15.72
2023-05-21T00:43:07.616Z,15.71
2023-05-21T00:44:09.788Z,15.75
2023-05-21T00:45:11.398Z,15.72
2023-05-21T00:46:18.634Z,15.72
2023-05-21T00:47:21.386Z,15.71
2023-05-21T00:48:23.780Z,15.60
2023-05-21T00:49:25.549Z,15.55
2023-05-21T00:50:27.376Z,15.58
2023-05-21T00:51:29.149Z,15.59
2023-05-21T00:52:31.171Z,15.58
2023-05-21T00:53:33.038Z,15.58
2023-05-21T00:54:34.689Z,15.55
2023-05-21T00:55:39.758Z,15.53
2023-05-21T00:56:41.833Z,15.53
2023-05-21T00:57:43.594Z,15.52
2023-05-21T00:58:45.230Z,15.53
2023-05-21T00:59:48.080Z,15.53
2023-05-21T01:00:49.700Z,15.52
2023-05-21T01:01:52.589Z,15.50
2023-05-21T01:02:55.062Z,15.45
2023-05-21T01:03:56.744Z,15.45
2023-05-21T01:04:58.488Z,15.37
2023-05-21T01:06:00.394Z,15.10
2023-05-21T01:07:02.031Z,15.02
2023-05-21T01:08:04.298Z,15.01
2023-05-21T01:09:06.484Z,15.05
2023-05-21T01:10:10.504Z,15.09
2023-05-21T01:11:12.790Z,15.11
2023-05-21T01:12:15.116Z,15.12
2023-05-21T01:13:17.668Z,15.11
2023-05-21T01:14:20.643Z,15.11
2023-05-21T01:15:22.427Z,15.12
2023-05-21T01:16:24.196Z,15.11
2023-05-21T01:17:27.470Z,15.12
2023-05-21T01:18:29.406Z,15.10
2023-05-21T01:19:31.262Z,15.09
2023-05-21T01:20:33.193Z,15.08
2023-05-21T01:21:40.576Z,15.06
2023-05-21T01:22:47.629Z,15.10
2023-05-21T01:23:49.264Z,15.09
2023-05-21T01:24:51.412Z,15.12
2023-05-21T01:25:53.696Z,15.13
2023-05-21T01:26:55.358Z,15.12
2023-05-21T01:27:56.953Z,15.13
2023-05-21T01:28:58.778Z,15.14
2023-05-21T01:30:00.443Z,15.10
2023-05-21T01:31:12.354Z,15.11
2023-05-21T01:32:19.132Z,15.03
2023-05-21T01:33:28.846Z,15.01
2023-05-21T01:34:37.737Z,15.01
2023-05-21T01:35:44.458Z,14.99
2023-05-21T01:36:51.308Z,14.98
2023-05-21T01:38:05.174Z,14.97
2023-05-21T01:39:14.301Z,14.96
2023-05-21T01:40:55.041Z,14.96
2023-05-21T01:41:58.053Z,14.96
2023-05-21T01:43:00.046Z,14.92
2023-05-21T01:44:04.506Z,14.88
2023-05-21T01:45:07.306Z,14.83
2023-05-21T01:46:13.016Z,14.73
2023-05-21T01:47:17.081Z,14.61
2023-05-21T01:48:19.654Z,14.56
2023-05-21T01:49:22.768Z,14.58
2023-05-21T01:50:25.568Z,14.56
2023-05-21T01:51:27.871Z,14.57
2023-05-21T01:52:29.462Z,14.56
2023-05-21T01:53:31.338Z,14.60
2023-05-21T01:54:32.902Z,14.57
2023-05-21T01:55:34.947Z,14.58
2023-05-21T01:56:36.665Z,14.59
2023-05-21T01:57:38.350Z,14.56
2023-05-21T01:58:39.948Z,14.48
2023-05-21T01:59:41.567Z,14.44
2023-05-21T02:00:43.280Z,14.44
2023-05-21T02:01:44.979Z,14.39
2023-05-21T02:02:46.881Z,14.33
2023-05-21T02:03:48.735Z,14.31
2023-05-21T02:04:50.382Z,14.29
2023-05-21T02:05:52.086Z,14.25
2023-05-21T02:06:53.792Z,14.27
2023-05-21T02:07:55.480Z,14.31
2023-05-21T02:08:57.561Z,14.26
2023-05-21T02:09:59.128Z,14.22
2023-05-21T02:11:00.804Z,14.21
2023-05-21T02:12:03.232Z,14.20
2023-05-21T02:13:04.954Z,14.18
2023-05-21T02:14:06.572Z,14.14
2023-05-21T02:15:08.317Z,14.15
2023-05-21T02:16:10.037Z,14.12
2023-05-21T02:17:11.693Z,14.16
2023-05-21T02:18:13.281Z,14.14
2023-05-21T02:19:15.195Z,14.13
2023-05-21T02:20:17.561Z,14.10
2023-05-21T02:21:19.213Z,14.08
2023-05-21T02:22:20.827Z,14.07
2023-05-21T02:23:22.382Z,14.10
2023-05-21T02:24:23.990Z,14.08
2023-05-21T02:25:25.637Z,14.07
2023-05-21T02:26:27.246Z,13.91
2023-05-21T02:27:28.816Z,13.88
2023-05-21T02:28:30.773Z,13.90
2023-05-21T02:29:32.793Z,13.90
2023-05-21T02:30:34.409Z,13.84
2023-05-21T02:31:36.059Z,13.79
2023-05-21T02:32:38.528Z,13.71
2023-05-21T02:33:41.141Z,13.75
2023-05-21T02:34:42.696Z,13.75
2023-05-21T02:35:44.263Z,13.78
2023-05-21T02:36:46.961Z,13.77
2023-05-21T02:37:48.561Z,13.79
2023-05-21T02:38:50.669Z,13.77
2023-05-21T02:39:52.228Z,13.74
2023-05-21T02:40:53.986Z,13.79
2023-05-21T02:41:55.822Z,13.76
2023-05-21T02:42:57.444Z,13.73
2023-05-21T02:43:59.046Z,13.76
2023-05-21T02:45:01.222Z,13.78
2023-05-21T02:46:05.884Z,13.79
2023-05-21T02:47:07.524Z,13.80
2023-05-21T02:48:09.209Z,13.82
2023-05-21T02:49:14.669Z,13.83
2023-05-21T02:50:18.121Z,13.84
2023-05-21T02:51:25.669Z,13.81
2023-05-21T02:52:27.575Z,13.75
2023-05-21T02:53:29.155Z,13.61
2023-05-21T02:54:31.481Z,13.61
2023-05-21T02:55:33.108Z,13.65
2023-05-21T02:56:36.051Z,13.69
2023-05-21T02:57:37.754Z,13.63
2023-05-21T02:58:39.339Z,13.65
2023-05-21T02:59:41.163Z,13.64
2023-05-21T03:00:42.774Z,13.57
2023-05-21T03:01:44.453Z,13.55
2023-05-21T03:02:46.182Z,13.61
2023-05-21T03:03:48.291Z,13.64
2023-05-21T03:04:50.161Z,13.58
2023-05-21T03:05:51.738Z,13.51
2023-05-21T03:06:53.656Z,13.54
2023-05-21T03:07:55.229Z,13.56
2023-05-21T03:08:56.857Z,13.54
2023-05-21T03:09:58.540Z,13.45
2023-05-21T03:11:00.181Z,13.46
2023-05-21T03:12:01.786Z,13.39
2023-05-21T03:13:03.697Z,13.39
2023-05-21T03:14:05.330Z,13.44
2023-05-21T03:15:07.469Z,13.41
2023-05-21T03:16:09.061Z,13.45
2023-05-21T03:17:10.685Z,13.50
2023-05-21T03:18:12.422Z,13.51
2023-05-21T03:19:14.098Z,13.51
2023-05-21T03:20:15.797Z,13.46
2023-05-21T03:21:17.654Z,13.47
2023-05-21T03:22:19.289Z,13.48
2023-05-21T03:23:21.652Z,13.46
2023-05-21T03:24:23.633Z,13.45
2023-05-21T03:25:25.360Z,13.49
2023-05-21T03:26:27.410Z,13.41
2023-05-21T03:27:29.334Z,13.32
2023-05-21T03:28:31.375Z,13.25
2023-05-21T03:29:34.146Z,13.31
2023-05-21T03:30:37.342Z,13.37
2023-05-21T03:31:57.879Z,13.44
2023-05-21T03:32:59.641Z,13.44
2023-05-21T03:34:01.260Z,13.44
2023-05-21T03:35:05.887Z,13.46
2023-05-21T03:36:07.591Z,13.48
2023-05-21T03:37:12.019Z,13.51
2023-05-21T03:38:13.676Z,13.48
2023-05-21T03:39:15.550Z,13.53
2023-05-21T03:40:17.202Z,13.55
2023-05-21T03:41:19.228Z,13.53
2023-05-21T03:42:25.225Z,13.47
2023-05-21T03:43:29.304Z,13.51
2023-05-21T03:44:30.994Z,13.48
2023-05-21T03:45:44.336Z,13.48
2023-05-21T03:47:18.551Z,13.51
2023-05-21T03:48:20.456Z,13.54
2023-05-21T03:49:22.089Z,13.54
2023-05-21T03:50:26.041Z,13.55
2023-05-21T03:51:27.803Z,13.58
2023-05-21T03:52:29.685Z,13.56
2023-05-21T03:53:33.974Z,13.52
2023-05-21T03:54:35.722Z,13.41
2023-05-21T03:55:40.649Z,13.41
2023-05-21T03:56:42.383Z,13.40
2023-05-21T03:57:44.008Z,13.39
2023-05-21T03:58:45.654Z,13.44
2023-05-21T03:59:47.250Z,13.47
2023-05-21T04:00:49.607Z,13.50
2023-05-21T04:01:51.177Z,13.53
2023-05-21T04:02:52.952Z,13.56
2023-05-21T04:03:54.703Z,13.61
2023-05-21T04:04:58.489Z,13.68
2023-05-21T04:06:00.109Z,13.70
2023-05-21T04:07:01.861Z,13.72
2023-05-21T04:08:04.018Z,13.71
2023-05-21T04:09:05.650Z,13.72
2023-05-21T04:10:07.772Z,13.77
2023-05-21T04:11:09.424Z,13.83
2023-05-21T04:12:11.003Z,13.90
2023-05-21T04:13:12.631Z,13.96
2023-05-21T04:14:14.283Z,13.98
2023-05-21T04:15:15.882Z,13.99
2023-05-21T04:16:17.610Z,14.05
2023-05-21T04:17:19.322Z,14.10
2023-05-21T04:18:21.114Z,14.14
2023-05-21T04:19:22.941Z,14.18
2023-05-21T04:20:24.744Z,14.25
2023-05-21T04:21:26.386Z,14.31
2023-05-21T04:22:27.982Z,14.36
2023-05-21T04:23:29.607Z,14.38
2023-05-21T04:24:32.618Z,14.38
2023-05-21T04:25:44.114Z,14.35
2023-05-21T04:26:46.218Z,14.39
2023-05-21T04:27:47.907Z,14.45
2023-05-21T04:28:49.778Z,14.52
2023-05-21T04:29:51.730Z,14.57
2023-05-21T04:30:53.401Z,14.53
2023-05-21T04:31:55.068Z,14.60
2023-05-21T04:32:56.663Z,14.65
2023-05-21T04:33:58.372Z,14.67
2023-05-21T04:35:01.096Z,14.73
2023-05-21T04:36:02.814Z,14.77
2023-05-21T04:37:04.800Z,14.81
2023-05-21T04:38:06.473Z,14.83
2023-05-21T04:39:08.065Z,14.88
2023-05-21T04:40:10.054Z,14.91
2023-05-21T04:41:13.347Z,14.91
2023-05-21T04:42:14.984Z,14.92
2023-05-21T04:43:16.933Z,14.95
2023-05-21T04:44:19.470Z,14.98
2023-05-21T04:45:21.552Z,15.02
2023-05-21T04:46:23.506Z,15.04
2023-05-21T04:47:25.168Z,15.01
2023-05-21T04:48:26.859Z,15.06
2023-05-21T04:49:28.579Z,15.08
2023-05-21T04:50:30.179Z,15.11
2023-05-21T04:51:31.974Z,15.12
2023-05-21T04:52:33.604Z,15.14
2023-05-21T04:53:35.227Z,15.15
2023-05-21T04:54:36.969Z,15.19
2023-05-21T04:55:38.634Z,15.25
2023-05-21T04:56:40.519Z,15.24
2023-05-21T04:57:42.123Z,15.24
2023-05-21T04:58:44.259Z,15.31
2023-05-21T04:59:46.555Z,15.28
2023-05-21T05:00:48.603Z,15.24
2023-05-21T05:01:50.363Z,15.28
2023-05-21T05:02:52.014Z,15.33
2023-05-21T05:03:53.856Z,15.35
2023-05-21T05:04:55.482Z,15.33
2023-05-21T05:05:57.084Z,15.21
2023-05-21T05:06:58.683Z,15.23
2023-05-21T05:08:00.529Z,15.32
2023-05-21T05:09:02.217Z,15.40
2023-05-21T05:10:04.401Z,15.49
2023-05-21T05:11:07.767Z,15.58
2023-05-21T05:12:09.529Z,15.64
2023-05-21T05:13:11.237Z,15.72
2023-05-21T05:14:12.828Z,15.78
2023-05-21T05:15:14.687Z,15.82
2023-05-21T05:16:16.373Z,15.87
2023-05-21T05:17:18.013Z,15.95
2023-05-21T05:18:20.012Z,16.08
2023-05-21T05:19:21.674Z,16.20
2023-05-21T05:20:23.370Z,16.21
2023-05-21T05:21:25.554Z,16.25
2023-05-21T05:22:27.289Z,16.31
2023-05-21T05:23:28.980Z,16.41
2023-05-21T05:24:30.581Z,16.53
2023-05-21T05:25:32.993Z,16.67
2023-05-21T05:26:34.606Z,16.81
2023-05-21T05:27:38.376Z,16.98
2023-05-21T05:28:40.309Z,17.05
2023-05-21T05:29:41.988Z,17.21
2023-05-21T05:30:43.687Z,17.37
2023-05-21T05:31:54.666Z,17.54
2023-05-21T05:32:56.324Z,17.68
2023-05-21T05:33:58.017Z,17.83
2023-05-21T05:35:01.600Z,17.97
2023-05-21T05:36:04.369Z,18.08
2023-05-21T05:37:05.997Z,18.24
2023-05-21T05:38:08.023Z,18.35
2023-05-21T05:39:10.897Z,18.45
2023-05-21T05:40:13.492Z,18.60
2023-05-21T05:41:15.148Z,18.70
2023-05-21T05:42:16.838Z,18.81
2023-05-21T05:43:19.641Z,18.90
2023-05-21T05:44:21.416Z,18.91
2023-05-21T05:45:23.089Z,19.01
2023-05-21T05:46:24.761Z,19.08
2023-05-21T05:47:26.764Z,19.11
2023-05-21T05:48:29.413Z,19.19
2023-05-21T05:49:32.233Z,19.23
2023-05-21T05:50:34.719Z,19.32
2023-05-21T05:51:36.371Z,19.32
2023-05-21T05:52:38.042Z,19.36
2023-05-21T05:53:39.638Z,19.35
2023-05-21T05:54:41.332Z,19.36
2023-05-21T05:55:43.768Z,19.43
2023-05-21T05:56:45.358Z,19.47
2023-05-21T05:57:46.957Z,19.48
2023-05-21T05:58:50.175Z,19.54
2023-05-21T05:59:53.789Z,19.56
2023-05-21T06:00:55.526Z,19.55
2023-05-21T06:01:57.161Z,19.54
2023-05-21T06:02:58.836Z,19.43
2023-05-21T06:04:01.632Z,19.47
2023-05-21T06:05:05.088Z,19.38
2023-05-21T06:06:06.776Z,19.46
2023-05-21T06:07:08.610Z,19.52
2023-05-21T06:08:10.460Z,19.62
2023-05-21T06:09:12.043Z,19.69
2023-05-21T06:10:13.671Z,19.71
2023-05-21T06:11:16.105Z,19.75
2023-05-21T06:12:17.755Z,19.71
2023-05-21T06:13:19.456Z,19.79
2023-05-21T06:14:21.132Z,19.86
2023-05-21T06:15:23.545Z,19.86
2023-05-21T06:16:25.489Z,19.89
2023-05-21T06:17:27.474Z,19.91
2023-05-21T06:18:29.512Z,19.96
2023-05-21T06:19:31.233Z,20.08
2023-05-21T06:20:32.978Z,20.17
2023-05-21T06:21:34.590Z,20.20
2023-05-21T06:22:38.180Z,20.26
2023-05-21T06:23:41.719Z,20.27
2023-05-21T06:24:44.163Z,20.32
2023-05-21T06:25:46.969Z,20.34
2023-05-21T06:26:49.095Z,20.41
2023-05-21T06:27:50.698Z,20.41
2023-05-21T06:28:57.851Z,20.49
2023-05-21T06:29:59.468Z,20.60
2023-05-21T06:31:01.160Z,20.63
2023-05-21T06:32:03.339Z,20.67
2023-05-21T06:33:05.105Z,20.70
2023-05-21T06:34:06.894Z,20.74
2023-05-21T06:35:08.994Z,20.73
2023-05-21T06:36:10.587Z,20.75
2023-05-21T06:37:12.219Z,20.85
2023-05-21T06:38:13.846Z,20.85
2023-05-21T06:39:15.456Z,20.90
2023-05-21T06:40:17.083Z,20.91
2023-05-21T06:41:19.944Z,20.97
2023-05-21T06:42:28.454Z,21.07
2023-05-21T06:43:48.879Z,20.97
2023-05-21T06:45:09.538Z,21.06
2023-05-21T06:46:13.056Z,21.09
2023-05-21T06:47:15.536Z,21.12
2023-05-21T06:48:18.427Z,21.20
2023-05-21T06:49:21.922Z,21.29
2023-05-21T06:50:23.540Z,21.29
2023-05-21T06:51:25.217Z,21.36
2023-05-21T06:52:26.881Z,21.40
2023-05-21T06:53:28.795Z,21.45
2023-05-21T06:54:30.560Z,21.51
2023-05-21T06:55:32.234Z,21.60
2023-05-21T06:56:55.128Z,21.66
2023-05-21T06:57:57.786Z,21.68
2023-05-21T06:58:59.404Z,21.71
2023-05-21T07:00:02.459Z,21.74
2023-05-21T07:01:06.145Z,21.74
2023-05-21T07:02:07.813Z,21.83
2023-05-21T07:03:10.022Z,21.96
2023-05-21T07:04:11.880Z,22.02
2023-05-21T07:05:14.944Z,22.01
2023-05-21T07:06:16.592Z,22.03
2023-05-21T07:07:18.297Z,22.12
2023-05-21T07:08:19.920Z,22.18
2023-05-21T07:09:21.608Z,22.15
2023-05-21T07:10:23.423Z,22.23
2023-05-21T07:11:25.043Z,22.23
2023-05-21T07:12:26.668Z,22.26
2023-05-21T07:13:29.173Z,22.34
2023-05-21T07:14:30.799Z,22.37
2023-05-21T07:15:32.722Z,22.40
2023-05-21T07:16:34.406Z,22.41
2023-05-21T07:17:37.008Z,22.41
2023-05-21T07:18:38.694Z,22.38
2023-05-21T07:19:40.310Z,22.29
2023-05-21T07:20:41.869Z,22.37
2023-05-21T07:21:47.099Z,22.46
2023-05-21T07:22:48.753Z,22.46
2023-05-21T07:23:51.811Z,22.49
2023-05-21T07:24:53.588Z,22.53
2023-05-21T07:25:55.226Z,22.58
2023-05-21T07:26:57.320Z,22.64
2023-05-21T07:27:58.931Z,22.72
2023-05-21T07:29:00.581Z,22.79
2023-05-21T07:30:02.205Z,22.80
2023-05-21T07:31:05.171Z,22.85
2023-05-21T07:32:13.033Z,22.87
2023-05-21T07:33:14.686Z,22.87
2023-05-21T07:34:17.042Z,22.87
2023-05-21T07:35:18.970Z,22.89
2023-05-21T07:36:20.603Z,22.95
2023-05-21T07:37:22.277Z,22.88
2023-05-21T07:38:24.103Z,22.90
2023-05-21T07:39:25.715Z,22.97
2023-05-21T07:40:27.589Z,23.08
2023-05-21T07:41:29.527Z,23.15
2023-05-21T07:42:32.398Z,23.21
2023-05-21T07:43:34.183Z,23.26
2023-05-21T07:44:35.929Z,23.35
2023-05-21T07:45:37.887Z,23.42
2023-05-21T07:46:40.336Z,23.40
2023-05-21T07:47:44.979Z,23.48
2023-05-21T07:48:46.627Z,23.47
2023-05-21T07:49:48.382Z,23.55
2023-05-21T07:50:50.154Z,23.56
2023-05-21T07:51:52.040Z,23.58
2023-05-21T07:52:54.311Z,23.67
2023-05-21T07:53:56.007Z,23.69
2023-05-21T07:55:05.196Z,23.70
2023-05-21T07:56:09.727Z,23.74
2023-05-21T07:57:11.602Z,23.77
2023-05-21T07:58:29.727Z,23.80
2023-05-21T07:59:31.398Z,23.83
2023-05-21T08:00:42.852Z,23.85
2023-05-21T08:01:45.643Z,23.85
2023-05-21T08:02:47.376Z,23.89
2023-05-21T08:03:50.320Z,23.94
2023-05-21T08:04:52.032Z,23.98
2023-05-21T08:05:53.688Z,24.00
2023-05-21T08:06:55.271Z,23.96
2023-05-21T08:07:56.852Z,23.91
2023-05-21T08:08:58.585Z,23.95
2023-05-21T08:10:02.170Z,23.99
2023-05-21T08:11:04.611Z,24.02
2023-05-21T08:12:06.699Z,24.11
2023-05-21T08:13:10.075Z,24.20
2023-05-21T08:14:11.722Z,24.19
2023-05-21T08:15:13.365Z,24.23
2023-05-21T08:16:19.085Z,24.30
2023-05-21T08:17:20.756Z,24.30
2023-05-21T08:18:22.515Z,24.34
2023-05-21T08:19:25.286Z,24.38
2023-05-21T08:20:26.960Z,24.43
2023-05-21T08:21:28.557Z,24.36
2023-05-21T08:22:30.505Z,24.46
2023-05-21T08:23:32.100Z,24.53
2023-05-21T08:24:34.869Z,24.62
2023-05-21T08:25:36.954Z,24.61
2023-05-21T08:26:39.329Z,24.69
2023-05-21T08:27:40.950Z,24.71
2023-05-21T08:28:43.315Z,24.70
2023-05-21T08:29:44.945Z,24.66
2023-05-21T08:30:46.546Z,24.62
2023-05-21T08:31:48.216Z,24.66
2023-05-21T08:32:49.961Z,24.71
2023-05-21T08:33:54.437Z,24.82
2023-05-21T08:35:04.212Z,24.84
2023-05-21T08:36:28.614Z,24.83
2023-05-21T08:37:35.887Z,24.92
2023-05-21T08:38:48.523Z,24.97
2023-05-21T08:39:59.754Z,24.95
2023-05-21T08:41:07.665Z,24.90
2023-05-21T08:42:35.665Z,24.89
2023-05-21T08:43:39.573Z,24.96
2023-05-21T08:44:47.694Z,25.02
2023-05-21T08:45:54.043Z,25.09
2023-05-21T08:46:59.127Z,25.16
2023-05-21T08:48:00.909Z,25.24
2023-05-21T08:49:11.326Z,25.23
2023-05-21T08:50:15.720Z,25.30
2023-05-21T08:51:17.400Z,25.32
2023-05-21T08:52:23.290Z,25.40
2023-05-21T08:53:28.536Z,25.47
2023-05-21T08:54:31.861Z,25.57
2023-05-21T08:55:33.514Z,25.56
2023-05-21T08:56:35.394Z,25.57
2023-05-21T08:57:37.340Z,25.60
2023-05-21T08:58:42.275Z,25.60
2023-05-21T08:59:44.137Z,25.65
2023-05-21T09:00:55.239Z,25.72
2023-05-21T09:02:00.284Z,25.80
2023-05-21T09:03:09.083Z,25.88
2023-05-21T09:04:20.887Z,25.94
2023-05-21T09:05:26.850Z,25.98
2023-05-21T09:06:29.006Z,26.07
2023-05-21T09:07:39.151Z,26.13
2023-05-21T09:09:02.470Z,26.13
2023-05-21T09:10:14.124Z,26.23
2023-05-21T09:11:16.590Z,26.27
2023-05-21T09:12:25.019Z,26.33
2023-05-21T09:13:28.315Z,26.30
2023-05-21T09:14:30.859Z,26.32
2023-05-21T09:15:47.424Z,26.23
2023-05-21T09:16:50.558Z,26.21
2023-05-21T09:17:53.322Z,26.28
2023-05-21T09:19:24.462Z,26.32
2023-05-21T09:20:27.644Z,26.41
2023-05-21T09:21:33.968Z,26.47
2023-05-21T09:22:49.031Z,26.59
2023-05-21T09:23:59.091Z,26.66
2023-05-21T09:25:04.595Z,26.68
2023-05-21T09:26:12.253Z,26.71
2023-05-21T09:27:18.018Z,26.73
2023-05-21T09:28:19.903Z,26.62
2023-05-21T09:29:21.611Z,26.64
2023-05-21T09:30:26.810Z,26.68
2023-05-21T09:31:30.422Z,26.73
2023-05-21T09:32:32.081Z,26.69
2023-05-21T09:33:33.879Z,26.71
2023-05-21T09:34:36.535Z,26.72
2023-05-21T09:35:44.048Z,26.73
2023-05-21T09:36:45.755Z,26.84
2023-05-21T09:37:49.118Z,26.83
2023-05-21T09:38:51.450Z,26.83
2023-05-21T09:39:53.042Z,26.71
2023-05-21T09:40:57.338Z,26.66
2023-05-21T09:41:59.747Z,26.69
2023-05-21T09:43:01.967Z,26.76
2023-05-21T09:44:04.337Z,26.86
2023-05-21T09:45:10.108Z,26.79
2023-05-21T09:46:12.032Z,26.84
2023-05-21T09:47:19.906Z,26.71
2023-05-21T09:48:40.793Z,26.67
2023-05-21T09:49:45.344Z,26.58
2023-05-21T09:50:46.903Z,26.52
2023-05-21T09:51:48.537Z,26.57
2023-05-21T09:52:51.596Z,26.61
2023-05-21T09:53:57.454Z,26.73
2023-05-21T09:54:59.009Z,26.77
2023-05-21T09:56:00.608Z,26.69
2023-05-21T09:57:03.625Z,26.60
2023-05-21T09:58:05.418Z,26.58
2023-05-21T09:59:07.594Z,26.61
2023-05-21T10:00:17.022Z,26.58
2023-05-21T10:01:19.391Z,26.63
2023-05-21T10:02:23.591Z,26.65
2023-05-21T10:03:27.680Z,26.56
2023-05-21T10:04:30.258Z,26.52
2023-05-21T10:05:33.078Z,26.51
2023-05-21T10:06:42.006Z,26.69
2023-05-21T10:07:51.440Z,26.82
2023-05-21T10:08:55.623Z,26.89
2023-05-21T10:10:00.082Z,26.98
2023-05-21T10:11:03.858Z,27.02
2023-05-21T10:12:06.236Z,27.06
2023-05-21T10:13:10.037Z,27.01
2023-05-21T10:14:23.262Z,26.99
2023-05-21T10:15:25.251Z,27.08
2023-05-21T10:16:27.012Z,27.13
2023-05-21T10:17:30.133Z,27.23
2023-05-21T10:18:33.358Z,27.31
2023-05-21T10:19:35.198Z,27.34
2023-05-21T10:20:38.182Z,27.27
2023-05-21T10:21:40.961Z,27.25
2023-05-21T10:22:43.914Z,27.25
2023-05-21T10:23:46.231Z,27.29
2023-05-21T10:24:48.677Z,27.24
2023-05-21T10:25:51.206Z,27.18
2023-05-21T10:26:53.514Z,27.20
2023-05-21T10:27:55.854Z,27.30
2023-05-21T10:28:57.577Z,27.33
2023-05-21T10:30:00.040Z,27.43
2023-05-21T10:31:02.391Z,27.53
2023-05-21T10:32:05.526Z,27.59
2023-05-21T10:33:07.840Z,27.64
2023-05-21T10:34:11.492Z,27.63
2023-05-21T10:35:16.165Z,27.68
2023-05-21T10:36:17.768Z,27.75
2023-05-21T10:37:22.973Z,27.83
2023-05-21T10:38:25.226Z,27.81
2023-05-21T10:39:27.402Z,27.81
2023-05-21T10:40:28.933Z,27.80
2023-05-21T10:41:42.312Z,27.80
2023-05-21T10:42:57.100Z,27.80
2023-05-21T10:44:19.602Z,27.90
2023-05-21T10:45:23.791Z,27.92
2023-05-21T10:46:45.906Z,27.88
2023-05-21T10:47:47.537Z,27.86
2023-05-21T10:49:16.158Z,27.87
2023-05-21T10:50:36.035Z,27.84
2023-05-21T10:52:06.724Z,27.68
2023-05-21T10:53:35.166Z,27.64
2023-05-21T10:55:00.666Z,27.69
2023-05-21T10:56:05.218Z,27.58
2023-05-21T10:57:31.701Z,27.66
2023-05-21T10:59:23.858Z,27.64
2023-05-21T11:00:27.329Z,27.76
2023-05-21T11:01:31.336Z,27.82
2023-05-21T11:02:33.498Z,27.85
2023-05-21T11:03:37.871Z,27.84
2023-05-21T11:04:41.176Z,27.77
2023-05-21T11:05:56.263Z,27.76
2023-05-21T11:07:00.815Z,27.82
2023-05-21T11:08:02.436Z,27.90
2023-05-21T11:09:14.605Z,27.86
2023-05-21T11:10:41.246Z,27.73
2023-05-21T11:11:49.820Z,27.84
2023-05-21T11:13:13.919Z,28.00
2023-05-21T11:14:38.192Z,27.83
2023-05-21T11:15:58.140Z,27.81
2023-05-21T11:17:00.919Z,27.86
2023-05-21T11:18:02.660Z,27.89
2023-05-21T11:19:04.434Z,27.89
2023-05-21T11:20:11.408Z,27.96
2023-05-21T11:21:17.149Z,28.01
2023-05-21T11:22:26.376Z,28.04
2023-05-21T11:23:50.536Z,28.15
2023-05-21T11:24:56.399Z,27.98
2023-05-21T11:26:01.618Z,28.04
2023-05-21T11:27:03.682Z,28.05
2023-05-21T11:28:08.155Z,28.08
2023-05-21T11:29:11.071Z,28.08
2023-05-21T11:30:19.417Z,28.00
2023-05-21T11:31:28.137Z,28.03
2023-05-21T11:32:29.815Z,28.11
2023-05-21T11:33:31.472Z,28.18
2023-05-21T11:34:43.578Z,28.26
2023-05-21T11:35:45.163Z,28.28
2023-05-21T11:36:48.680Z,28.27
2023-05-21T11:37:54.206Z,28.31
2023-05-21T11:39:09.358Z,28.15
2023-05-21T11:40:21.081Z,28.01
2023-05-21T11:41:22.944Z,27.98
2023-05-21T11:42:30.417Z,28.06
2023-05-21T11:43:32.005Z,28.09
2023-05-21T11:44:42.943Z,28.06
2023-05-21T11:45:44.553Z,28.06
2023-05-21T11:46:46.536Z,28.02
2023-05-21T11:47:50.011Z,28.01
2023-05-21T11:48:52.654Z,28.01
2023-05-21T11:49:55.360Z,28.04
2023-05-21T11:50:57.173Z,28.02
2023-05-21T11:52:00.372Z,27.94
2023-05-21T11:53:02.322Z,28.00
2023-05-21T11:54:04.307Z,28.05
2023-05-21T11:55:06.510Z,28.03
2023-05-21T11:56:08.528Z,28.11
2023-05-21T11:57:10.369Z,28.11
2023-05-21T11:58:13.319Z,28.10
2023-05-21T11:59:17.133Z,28.14
2023-05-21T12:00:20.329Z,28.03
2023-05-21T12:01:23.912Z,27.99
2023-05-21T12:02:27.412Z,27.94
2023-05-21T12:03:29.182Z,27.92
2023-05-21T12:04:31.689Z,27.94
2023-05-21T12:05:47.124Z,28.00
2023-05-21T12:06:48.794Z,28.05
2023-05-21T12:07:50.549Z,28.10
2023-05-21T12:08:52.254Z,28.00
2023-05-21T12:09:54.466Z,28.00
2023-05-21T12:11:00.282Z,28.12
2023-05-21T12:12:02.070Z,28.04
2023-05-21T12:13:03.720Z,28.01
2023-05-21T12:14:10.803Z,28.04
2023-05-21T12:15:12.497Z,28.08
2023-05-21T12:16:14.979Z,28.08
2023-05-21T12:17:20.653Z,28.01
2023-05-21T12:18:22.294Z,27.96
2023-05-21T12:19:24.176Z,27.87
2023-05-21T12:20:26.695Z,27.87
2023-05-21T12:21:29.594Z,27.89
2023-05-21T12:22:31.330Z,27.97
2023-05-21T12:23:32.925Z,28.03
2023-05-21T12:24:35.719Z,28.05
2023-05-21T12:25:37.369Z,28.00
2023-05-21T12:26:39.058Z,27.92
2023-05-21T12:27:40.888Z,27.92
2023-05-21T12:28:42.640Z,27.87
2023-05-21T12:29:45.937Z,27.93
2023-05-21T12:30:48.134Z,27.88
2023-05-21T12:31:50.471Z,27.89
2023-05-21T12:32:52.181Z,27.93
2023-05-21T12:33:53.957Z,27.90
2023-05-21T12:34:56.214Z,27.84
2023-05-21T12:35:57.839Z,27.71
2023-05-21T12:36:59.459Z,27.78
2023-05-21T12:38:01.632Z,27.77
2023-05-21T12:39:03.444Z,27.78
2023-05-21T12:40:06.607Z,27.81
2023-05-21T12:41:08.294Z,27.83
2023-05-21T12:42:10.302Z,27.87
2023-05-21T12:43:12.001Z,27.81
2023-05-21T12:44:13.641Z,27.86
2023-05-21T12:45:16.942Z,27.92
2023-05-21T12:46:18.612Z,28.01
2023-05-21T12:47:23.609Z,28.00
2023-05-21T12:48:25.359Z,28.05
2023-05-21T12:49:39.113Z,28.04
2023-05-21T12:50:40.722Z,27.95
2023-05-21T12:51:45.142Z,27.95
2023-05-21T12:52:46.770Z,27.87
2023-05-21T12:53:48.393Z,27.89
2023-05-21T12:54:52.215Z,27.83
2023-05-21T12:55:54.230Z,27.86
2023-05-21T12:56:55.808Z,27.75
2023-05-21T12:58:04.821Z,27.67
2023-05-21T12:59:13.195Z,27.71
2023-05-21T13:00:14.783Z,27.80
2023-05-21T13:01:16.420Z,27.90
2023-05-21T13:02:29.005Z,28.00
2023-05-21T13:03:32.368Z,27.98
2023-05-21T13:04:36.488Z,27.91
2023-05-21T13:05:40.720Z,27.92
2023-05-21T13:06:43.417Z,27.87
2023-05-21T13:07:45.891Z,27.85
2023-05-21T13:08:47.799Z,27.94
2023-05-21T13:09:49.698Z,27.93
2023-05-21T13:10:51.293Z,27.95
2023-05-21T13:11:52.829Z,28.00
2023-05-21T13:12:54.420Z,28.04
2023-05-21T13:13:56.000Z,28.10
2023-05-21T13:14:59.524Z,28.12
2023-05-21T13:16:01.229Z,28.01
2023-05-21T13:17:02.996Z,27.95
2023-05-21T13:18:04.690Z,27.85
2023-05-21T13:19:06.552Z,27.76
2023-05-21T13:20:11.232Z,27.82
2023-05-21T13:21:12.804Z,27.85
2023-05-21T13:22:14.384Z,27.89
2023-05-21T13:23:16.024Z,27.85
2023-05-21T13:24:17.610Z,27.82
2023-05-21T13:25:21.623Z,27.85
2023-05-21T13:26:23.443Z,27.84
2023-05-21T13:27:25.032Z,27.83
2023-05-21T13:28:26.599Z,27.91
2023-05-21T13:29:28.286Z,27.94
2023-05-21T13:30:29.989Z,27.92
2023-05-21T13:31:31.592Z,27.84
2023-05-21T13:32:33.584Z,27.78
2023-05-21T13:33:35.650Z,27.83
2023-05-21T13:34:37.526Z,27.74
2023-05-21T13:35:39.149Z,27.77
2023-05-21T13:36:41.337Z,27.81
2023-05-21T13:37:42.999Z,27.87
2023-05-21T13:38:44.615Z,27.91
2023-05-21T13:39:47.014Z,27.94
2023-05-21T13:40:48.605Z,27.88